Time;durP1;ratioP1;P1;durP2;ratioP2;P2;SDS_P1;SDS_P2;PMS_P1;PMS_P2;Temp;Humidity;BMP_temperature;BMP_pressure;BME280_temperature;BME280_humidity;BME280_pressure;Samples;Min_cycle;Max_cycle;Signal;HPM_P1;HPM_P2
2022/03/20 00:02:33;;;;;;;;;;;;;;;;;;10510883;28;20468;-74
2022/03/20 00:07:38;;;;;;;21.43;8.07;;;;;;;;;;10511365;28;19949;-73
2022/03/20 00:12:43;;;;;;;7.47;4.05;;;;;;;;;;10490875;28;20048;-73
2022/03/20 00:17:46;;;;;;;19.60;7.50;;;;;;;;;;10493121;28;20032;-73
2022/03/20 00:22:49;;;;;;;11.30;4.63;;;;;;;;;;10492441;28;20071;-73
2022/03/20 00:27:53;;;;;;;13.10;5.73;;;;;;;;;;10500004;28;20028;-72
2022/03/20 00:32:56;;;;;;;15.35;5.97;;;;;;;;;;10493359;28;20081;-73
2022/03/20 00:37:58;;;;;;;21.00;7.83;;;;;;;;;;10516472;28;20074;-74
2022/03/20 00:43:04;;;;;;;20.17;7.70;;;;;;;;;;10520515;28;20032;-73
2022/03/20 00:48:08;;;;;;;25.33;8.60;;;;;;;;;;10510844;28;20036;-72
2022/03/20 00:53:10;;;;;;;;;;;;;;;;;;10489618;28;20052;-72
2022/03/20 00:58:15;;;;;;;20.07;7.10;;;;;;;;;;10523279;28;20006;-72
2022/03/20 01:03:18;;;;;;;20.37;6.73;;;;;;;;;;10491576;28;20044;-73
2022/03/20 01:08:21;;;;;;;23.97;9.37;;;;;;;;;;10496868;28;20400;-74
2022/03/20 01:13:25;;;;;;;17.07;7.43;;;;;;;;;;10502930;28;20608;-72
2022/03/20 01:18:28;;;;;;;29.17;9.80;;;;;;;;;;10501911;28;20128;-73
2022/03/20 01:23:31;;;;;;;16.43;7.03;;;;;;;;;;10514176;28;20177;-73
2022/03/20 01:28:35;;;;;;;29.37;8.93;;;;;;;;;;10517440;28;20100;-72
2022/03/20 01:38:49;;;;;;;28.70;9.63;;;;;;;;;;10487280;28;20094;-71
2022/03/20 01:43:54;;;;;;;9.57;3.73;;;;;;;;;;10490973;28;20036;-73
2022/03/20 01:48:57;;;;;;;26.77;9.07;;;;;;;;;;10529489;28;20036;-72
2022/03/20 01:54:00;;;;;;;16.73;5.97;;;;;;;;;;10500632;28;20063;-72
2022/03/20 01:59:04;;;;;;;14.07;6.07;;;;;;;;;;10511008;28;20024;-72
2022/03/20 02:04:08;;;;;;;26.17;9.23;;;;;;;;;;10506044;28;20044;-72
2022/03/20 02:09:11;;;;;;;15.50;5.40;;;;;;;;;;10489334;28;20036;-74
2022/03/20 02:14:15;;;;;;;18.93;6.97;;;;;;;;;;10509828;28;20038;-73
2022/03/20 02:19:20;;;;;;;15.23;6.03;;;;;;;;;;10504394;28;20040;-72
2022/03/20 02:24:32;;;;;;;13.63;5.63;;;;;;;;;;10509141;28;20381;-72
2022/03/20 02:29:35;;;;;;;19.37;5.30;;;;;;;;;;10518462;28;20028;-72
2022/03/20 02:34:39;;;;;;;27.00;10.98;;;;;;;;;;10489188;28;20036;-72
2022/03/20 02:39:44;;;;;;;10.45;5.10;;;;;;;;;;10517069;28;20038;-71
2022/03/20 02:44:46;;;;;;;;;;;;;;;;;;10528147;28;20032;-73
2022/03/20 02:49:51;;;;;;;14.73;6.00;;;;;;;;;;10508991;28;19924;-73
2022/03/20 02:55:00;;;;;;;13.43;5.40;;;;;;;;;;10500909;28;20056;-73
2022/03/20 03:00:05;;;;;;;15.97;6.83;;;;;;;;;;10521428;28;20048;-73
2022/03/20 03:05:08;;;;;;;12.03;4.63;;;;;;;;;;10512081;28;20044;-71
2022/03/20 03:15:33;;;;;;;24.93;8.10;;;;;;;;;;10516338;28;20139;-75
2022/03/20 03:20:36;;;;;;;11.53;4.60;;;;;;;;;;10500291;28;20040;-73
2022/03/20 03:25:41;;;;;;;31.88;9.63;;;;;;;;;;10496513;28;20040;-74
2022/03/20 03:30:45;;;;;;;25.17;9.03;;;;;;;;;;10519976;28;20056;-73
2022/03/20 03:35:53;;;;;;;20.98;8.20;;;;;;;;;;10512371;28;20036;-74
2022/03/20 03:40:58;;;;;;;26.23;8.63;;;;;;;;;;10500106;28;20040;-73
2022/03/20 03:46:01;;;;;;;23.37;9.40;;;;;;;;;;10502160;28;20066;-74
2022/03/20 03:51:04;;;;;;;28.87;8.93;;;;;;;;;;10499391;28;20113;-74
2022/03/20 03:56:09;;;;;;;22.03;8.47;;;;;;;;;;10504824;28;20081;-74
2022/03/20 04:01:11;;;;;;;17.57;5.60;;;;;;;;;;10521046;28;20119;-73
2022/03/20 04:06:14;;;;;;;18.73;6.73;;;;;;;;;;10498911;28;20053;-72
2022/03/20 04:11:19;;;;;;;19.90;7.30;;;;;;;;;;10493490;28;20037;-73
2022/03/20 04:16:22;;;;;;;28.67;9.50;;;;;;;;;;10506120;28;20508;-73
2022/03/20 04:21:25;;;;;;;11.03;4.00;;;;;;;;;;10506875;28;20047;-72
2022/03/20 04:26:30;;;;;;;19.97;7.67;;;;;;;;;;10502231;28;20040;-72
2022/03/20 04:31:32;;;;;;;;;;;;;;;;;;10530022;28;20042;-73
2022/03/20 04:36:35;;;;;;;8.63;4.63;;;;;;;;;;10503556;28;19920;-72
2022/03/20 04:41:40;;;;;;;12.10;5.60;;;;;;;;;;10497722;28;20063;-73
2022/03/20 04:46:42;;;;;;;;;;;;;;;;;;10517975;28;20036;-72
2022/03/20 05:02:31;;;;;;;24.10;8.63;;;;;;;;;;10490100;28;20716;-73
2022/03/20 05:07:34;;;;;;;22.80;7.03;;;;;;;;;;10513819;28;20033;-73
2022/03/20 05:17:59;;;;;;;26.17;9.07;;;;;;;;;;10491523;28;20056;-74
2022/03/20 05:23:02;;;;;;;21.10;8.27;;;;;;;;;;10518718;28;20143;-72
2022/03/20 05:28:06;;;;;;;31.17;9.90;;;;;;;;;;10517230;28;20388;-71
2022/03/20 05:33:11;;;;;;;26.67;9.17;;;;;;;;;;10494153;28;20036;-72
2022/03/20 05:38:14;;;;;;;30.37;9.87;;;;;;;;;;10511438;28;20059;-72
2022/03/20 05:43:18;;;;;;;29.57;9.40;;;;;;;;;;10500289;28;20419;-71
2022/03/20 05:48:21;;;;;;;;;;;;;;;;;;10505555;28;20036;-72
2022/03/20 05:53:24;;;;;;;13.00;4.47;;;;;;;;;;10509526;28;19921;-72
2022/03/20 05:58:28;;;;;;;21.87;8.87;;;;;;;;;;10503591;28;20098;-74
2022/03/20 06:03:31;;;;;;;20.38;7.35;;;;;;;;;;10488887;28;20501;-73
2022/03/20 06:08:36;;;;;;;19.42;6.97;;;;;;;;;;10511386;28;20177;-73
2022/03/20 06:13:41;;;;;;;24.35;8.80;;;;;;;;;;10509511;28;20040;-72
2022/03/20 06:18:43;;;;;;;26.48;9.32;;;;;;;;;;10506740;28;20044;-73
2022/03/20 06:23:46;;;;;;;26.83;9.87;;;;;;;;;;10497492;28;20471;-73
2022/03/20 06:28:52;;;;;;;27.27;8.50;;;;;;;;;;10500583;28;20093;-74
2022/03/20 06:33:56;;;;;;;7.00;3.90;;;;;;;;;;10498518;28;20032;-73
2022/03/20 06:39:02;;;;;;;29.03;9.97;;;;;;;;;;10513500;28;20044;-73
2022/03/20 06:44:06;;;;;;;24.03;9.57;;;;;;;;;;10513785;28;20036;-71
2022/03/20 06:49:12;;;;;;;26.40;9.73;;;;;;;;;;10514970;28;20040;-72
2022/03/20 06:54:15;;;;;;;23.00;8.43;;;;;;;;;;10512713;28;20561;-74
2022/03/20 06:59:20;;;;;;;25.63;10.27;;;;;;;;;;10493203;28;20438;-73
2022/03/20 07:04:23;;;;;;;28.17;12.75;;;;;;;;;;10512245;28;20169;-73
2022/03/20 07:09:28;;;;;;;20.45;10.15;;;;;;;;;;10515736;28;20048;-73
2022/03/20 07:14:34;;;;;;;26.38;12.73;;;;;;;;;;10514243;28;20411;-74
2022/03/20 07:19:39;;;;;;;25.60;12.48;;;;;;;;;;10497775;28;20458;-75
2022/03/20 07:24:43;;;;;;;21.58;10.80;;;;;;;;;;10485102;28;20048;-74
2022/03/20 07:29:49;;;;;;;28.52;14.27;;;;;;;;;;10491580;28;20032;-74
2022/03/20 07:34:53;;;;;;;28.00;14.05;;;;;;;;;;10512030;28;20035;-74
2022/03/20 07:39:56;;;;;;;26.80;13.80;;;;;;;;;;10496112;28;20055;-75
2022/03/20 07:45:03;;;;;;;27.15;14.32;;;;;;;;;;10506000;28;20132;-74
2022/03/20 07:50:08;;;;;;;24.73;14.15;;;;;;;;;;10531709;28;20046;-74
2022/03/20 07:55:11;;;;;;;28.40;15.02;;;;;;;;;;10519417;28;20067;-75
2022/03/20 08:00:17;;;;;;;27.15;15.48;;;;;;;;;;10488243;28;20127;-74
2022/03/20 08:05:21;;;;;;;26.23;15.77;;;;;;;;;;10500254;28;20086;-75
2022/03/20 08:10:23;;;;;;;29.23;15.55;;;;;;;;;;10517389;28;20028;-75
2022/03/20 08:15:28;;;;;;;24.63;15.65;;;;;;;;;;10497103;28;20032;-75
2022/03/20 08:20:31;;;;;;;25.45;15.40;;;;;;;;;;10488766;28;20111;-75
2022/03/20 08:25:33;;;;;;;27.90;15.95;;;;;;;;;;10517278;28;20040;-75
2022/03/20 08:30:39;;;;;;;24.25;15.52;;;;;;;;;;10507919;28;20028;-76
2022/03/20 08:35:42;;;;;;;25.63;17.23;;;;;;;;;;10502307;28;20071;-74
2022/03/20 08:40:45;;;;;;;22.02;15.60;;;;;;;;;;10499417;28;20052;-75
2022/03/20 08:45:50;;;;;;;23.95;16.25;;;;;;;;;;10489144;28;20452;-74
2022/03/20 08:50:53;;;;;;;25.10;16.77;;;;;;;;;;10508328;28;21778;-74
2022/03/20 08:56:02;;;;;;;25.70;17.52;;;;;;;;;;10514168;28;20032;-74
2022/03/20 09:01:07;;;;;;;25.75;16.58;;;;;;;;;;10487711;28;20036;-74
2022/03/20 09:06:11;;;;;;;22.45;15.45;;;;;;;;;;10507931;28;20602;-75
2022/03/20 09:11:14;;;;;;;24.25;17.40;;;;;;;;;;10504233;28;20024;-75
2022/03/20 09:21:39;;;;;;;22.27;15.00;;;;;;;;;;10486265;28;20028;-77
2022/03/20 09:26:42;;;;;;;22.10;15.25;;;;;;;;;;10505912;28;20354;-74
2022/03/20 09:31:50;;;;;;;19.88;14.43;;;;;;;;;;10505884;28;20043;-74
2022/03/20 09:36:53;;;;;;;19.38;14.35;;;;;;;;;;10516094;28;20040;-73
2022/03/20 09:41:56;;;;;;;19.80;13.88;;;;;;;;;;10486776;28;20499;-74
2022/03/20 09:47:01;;;;;;;18.60;14.20;;;;;;;;;;10501092;28;20056;-75
2022/03/20 09:52:04;;;;;;;20.30;14.50;;;;;;;;;;10495891;28;20040;-74
2022/03/20 09:57:09;;;;;;;18.73;14.20;;;;;;;;;;10497127;28;20028;-72
2022/03/20 10:02:13;;;;;;;19.10;14.23;;;;;;;;;;10504384;28;20036;-73
2022/03/20 10:07:20;;;;;;;19.75;14.18;;;;;;;;;;10506003;28;20062;-73
2022/03/20 10:12:31;;;;;;;20.40;15.00;;;;;;;;;;10502768;28;20054;-73
2022/03/20 10:17:35;;;;;;;16.77;13.70;;;;;;;;;;10508943;28;20060;-74
2022/03/20 10:22:39;;;;;;;17.23;13.70;;;;;;;;;;10491951;28;20380;-74
2022/03/20 10:27:54;;;;;;;18.08;13.55;;;;;;;;;;10505488;28;20118;-74
2022/03/20 10:33:01;;;;;;;18.33;14.63;;;;;;;;;;10482135;28;20040;-74
2022/03/20 10:38:04;;;;;;;17.08;13.93;;;;;;;;;;10489964;28;20060;-74
2022/03/20 10:43:09;;;;;;;17.77;13.48;;;;;;;;;;10486192;28;20105;-73
2022/03/20 10:48:13;;;;;;;16.60;13.85;;;;;;;;;;10503738;28;20056;-75
2022/03/20 10:53:17;;;;;;;17.48;13.73;;;;;;;;;;10486151;28;20082;-74
2022/03/20 10:58:20;;;;;;;17.65;12.98;;;;;;;;;;10492902;28;20031;-74
2022/03/20 11:03:25;;;;;;;16.88;12.35;;;;;;;;;;10514222;28;20039;-75
2022/03/20 11:08:28;;;;;;;14.82;12.55;;;;;;;;;;10487306;28;20044;-73
2022/03/20 11:13:34;;;;;;;15.07;12.90;;;;;;;;;;10490254;28;20125;-74
2022/03/20 11:18:39;;;;;;;19.38;14.45;;;;;;;;;;10498924;28;20552;-73
2022/03/20 11:23:45;;;;;;;18.13;13.75;;;;;;;;;;10509736;28;20400;-73
2022/03/20 11:28:51;;;;;;;17.13;13.15;;;;;;;;;;10498594;28;20474;-74
2022/03/20 11:33:57;;;;;;;16.15;13.57;;;;;;;;;;10499582;28;20043;-74
2022/03/20 11:39:08;;;;;;;20.50;13.68;;;;;;;;;;10500771;28;20052;-74
2022/03/20 11:44:11;;;;;;;;;;;;;;;;;;10500864;28;20035;-74
2022/03/20 11:49:22;;;;;;;16.20;11.20;;;;;;;;;;10510064;28;19955;-72
2022/03/20 11:54:30;;;;;;;19.90;12.95;;;;;;;;;;10512786;28;20042;-71
2022/03/20 11:59:44;;;;;;;16.75;13.13;;;;;;;;;;10508274;28;20041;-75
2022/03/20 12:05:00;;;;;;;16.95;12.57;;;;;;;;;;10488314;28;20416;-73
2022/03/20 12:10:07;;;;;;;17.05;12.45;;;;;;;;;;10498644;28;20071;-73
2022/03/20 12:15:11;;;;;;;15.35;11.07;;;;;;;;;;10484627;28;20101;-73
2022/03/20 12:20:35;;;;;;;16.40;12.23;;;;;;;;;;10507310;28;20527;-73
2022/03/20 12:25:44;;;;;;;15.88;12.02;;;;;;;;;;10493466;28;20488;-74
2022/03/20 12:30:47;;;;;;;14.00;10.70;;;;;;;;;;10491735;28;20067;-73
2022/03/20 12:35:52;;;;;;;17.65;10.90;;;;;;;;;;10495196;28;20119;-73
2022/03/20 12:40:56;;;;;;;16.38;9.70;;;;;;;;;;10500310;28;20071;-73
2022/03/20 12:46:00;;;;;;;15.80;10.88;;;;;;;;;;10510656;28;20052;-72
2022/03/20 12:51:09;;;;;;;16.58;10.15;;;;;;;;;;10489042;28;20439;-73
2022/03/20 12:56:17;;;;;;;14.48;10.00;;;;;;;;;;10518959;28;20076;-73
2022/03/20 13:01:21;;;;;;;17.98;10.75;;;;;;;;;;10491763;28;20071;-73
2022/03/20 13:06:29;;;;;;;17.50;11.18;;;;;;;;;;10510572;28;20062;-72
2022/03/20 13:11:52;;;;;;;17.75;10.90;;;;;;;;;;10517696;28;20454;-72
2022/03/20 13:16:56;;;;;;;14.70;8.60;;;;;;;;;;10497310;28;20116;-71
2022/03/20 13:22:04;;;;;;;16.88;10.38;;;;;;;;;;10494572;28;20070;-72
2022/03/20 13:27:09;;;;;;;20.33;11.25;;;;;;;;;;10496238;28;20051;-71
2022/03/20 13:32:13;;;;;;;18.15;10.32;;;;;;;;;;10503036;28;20107;-73
2022/03/20 13:37:18;;;;;;;16.40;9.95;;;;;;;;;;10492177;28;20044;-73
2022/03/20 13:42:22;;;;;;;19.23;9.90;;;;;;;;;;10481375;28;20036;-71
2022/03/20 13:47:25;;;;;;;18.83;9.70;;;;;;;;;;10484401;28;20093;-70
2022/03/20 13:52:31;;;;;;;17.98;9.60;;;;;;;;;;10492122;28;20048;-71
2022/03/20 13:57:35;;;;;;;14.77;8.70;;;;;;;;;;10504722;28;20048;-73
2022/03/20 14:02:39;;;;;;;16.77;10.02;;;;;;;;;;10504909;28;20117;-71
2022/03/20 14:07:44;;;;;;;18.55;9.85;;;;;;;;;;10507060;28;20036;-71
2022/03/20 14:12:46;;;;;;;14.90;8.55;;;;;;;;;;10496240;28;20059;-73
2022/03/20 14:17:50;;;;;;;15.40;8.50;;;;;;;;;;10496854;28;20056;-71
2022/03/20 14:22:56;;;;;;;17.50;8.95;;;;;;;;;;10522433;28;20048;-72
2022/03/20 14:28:00;;;;;;;17.40;9.30;;;;;;;;;;10486054;28;20094;-72
2022/03/20 14:43:47;;;;;;;17.38;9.65;;;;;;;;;;10495566;28;20464;-68
2022/03/20 14:48:51;;;;;;;16.35;9.48;;;;;;;;;;10487943;28;20056;-72
2022/03/20 14:53:55;;;;;;;16.38;8.73;;;;;;;;;;10514702;28;20523;-70
2022/03/20 14:58:59;;;;;;;18.98;9.70;;;;;;;;;;10506762;28;20047;-74
2022/03/20 15:04:02;;;;;;;22.50;10.15;;;;;;;;;;10485699;28;20035;-71
2022/03/20 15:14:27;;;;;;;17.77;9.20;;;;;;;;;;10522435;28;20059;-70
2022/03/20 15:19:31;;;;;;;17.90;9.18;;;;;;;;;;10493778;28;20035;-70
2022/03/20 15:24:37;;;;;;;18.90;9.43;;;;;;;;;;10518514;28;20036;-70
2022/03/20 15:29:41;;;;;;;18.08;8.77;;;;;;;;;;10512386;28;20047;-71
2022/03/20 15:34:44;;;;;;;18.70;10.05;;;;;;;;;;10514771;28;20036;-71
2022/03/20 15:39:49;;;;;;;19.67;9.40;;;;;;;;;;10517754;28;20036;-71
2022/03/20 15:44:52;;;;;;;17.80;9.35;;;;;;;;;;10509546;28;20036;-72
2022/03/20 15:49:54;;;;;;;12.90;6.43;;;;;;;;;;10500717;28;20101;-70
2022/03/20 15:54:59;;;;;;;16.83;9.23;;;;;;;;;;10528026;22;20278;-78
2022/03/20 16:00:22;;;;;;;17.58;9.02;;;;;;;;;;10542065;28;20320;-79
2022/03/20 16:05:26;;;;;;;18.90;8.90;;;;;;;;;;10537491;28;20037;-79
2022/03/20 16:10:30;;;;;;;18.38;8.93;;;;;;;;;;10544163;22;20050;-72
2022/03/20 16:15:36;;;;;;;17.00;8.65;;;;;;;;;;10547706;28;20055;-71
2022/03/20 16:20:41;;;;;;;34.95;14.60;;;;;;;;;;10544105;28;20126;-71
2022/03/20 16:31:08;;;;;;;22.23;9.15;;;;;;;;;;10550418;28;20043;-72
2022/03/20 16:36:13;;;;;;;15.55;7.93;;;;;;;;;;10530146;28;20035;-73
2022/03/20 16:41:19;;;;;;;17.00;7.80;;;;;;;;;;10536480;28;20054;-75
2022/03/20 16:46:22;;;;;;;17.08;7.82;;;;;;;;;;10551479;28;20040;-74
2022/03/20 16:51:25;;;;;;;20.57;8.73;;;;;;;;;;10541144;28;20421;-74
2022/03/20 16:56:29;;;;;;;18.33;8.50;;;;;;;;;;10543176;28;20035;-73
2022/03/20 17:01:32;;;;;;;16.60;7.53;;;;;;;;;;10543638;28;20106;-74
2022/03/20 17:06:37;;;;;;;16.27;7.93;;;;;;;;;;10542303;28;20096;-73
2022/03/20 17:11:41;;;;;;;13.38;6.75;;;;;;;;;;10564533;28;20151;-76
2022/03/20 17:16:44;;;;;;;20.88;7.93;;;;;;;;;;10544750;28;20052;-76
2022/03/20 17:21:47;;;;;;;12.17;6.47;;;;;;;;;;10584050;28;20040;-73
2022/03/20 17:26:52;;;;;;;16.77;7.43;;;;;;;;;;10545241;28;20089;-73
2022/03/20 17:31:57;;;;;;;16.00;7.35;;;;;;;;;;10560793;28;20123;-76
2022/03/20 17:37:00;;;;;;;14.48;6.63;;;;;;;;;;10561808;28;20414;-74
2022/03/20 17:42:05;;;;;;;14.55;7.10;;;;;;;;;;10542476;28;20040;-74
2022/03/20 17:47:28;;;;;;;11.85;5.53;;;;;;;;;;10558068;28;20136;-75
2022/03/20 17:52:31;;;;;;;15.35;6.72;;;;;;;;;;10565388;28;20039;-74
2022/03/20 17:57:37;;;;;;;14.82;6.82;;;;;;;;;;10564381;28;20023;-74
2022/03/20 18:08:00;;;;;;;15.15;6.32;;;;;;;;;;10552214;27;20118;-74
2022/03/20 18:13:06;;;;;;;13.90;6.57;;;;;;;;;;10577681;28;20051;-74
2022/03/20 18:18:10;;;;;;;13.02;5.70;;;;;;;;;;10557463;28;20316;-74
2022/03/20 18:23:13;;;;;;;17.20;6.88;;;;;;;;;;10575188;27;20134;-72
2022/03/20 18:28:18;;;;;;;9.03;4.40;;;;;;;;;;10554522;28;20463;-74
2022/03/20 18:33:21;;;;;;;14.85;6.90;;;;;;;;;;10594618;28;20065;-73
2022/03/20 18:38:26;;;;;;;14.00;6.07;;;;;;;;;;10575298;28;20035;-75
2022/03/20 18:43:39;;;;;;;48.92;7.40;;;;;;;;;;10553428;28;20130;-77
2022/03/20 18:48:42;;;;;;;12.38;4.88;;;;;;;;;;10552558;28;20042;-74
2022/03/20 18:53:45;;;;;;;12.45;6.28;;;;;;;;;;10572651;28;20059;-75
2022/03/20 18:58:49;;;;;;;14.30;6.20;;;;;;;;;;10572536;28;20118;-73
2022/03/20 19:03:52;;;;;;;16.40;5.93;;;;;;;;;;10567812;28;20349;-75
2022/03/20 19:08:56;;;;;;;13.98;6.57;;;;;;;;;;10573870;27;20039;-75
2022/03/20 19:14:00;;;;;;;14.03;5.87;;;;;;;;;;10556106;27;20055;-75
2022/03/20 19:19:04;;;;;;;12.15;5.45;;;;;;;;;;10569583;28;20040;-74
2022/03/20 19:24:08;;;;;;;13.32;5.38;;;;;;;;;;10561079;28;20153;-78
2022/03/20 19:29:13;;;;;;;13.38;6.20;;;;;;;;;;10568378;28;20502;-74
2022/03/20 19:39:54;;;;;;;12.30;5.63;;;;;;;;;;10541285;28;20036;-74
2022/03/20 19:45:00;;;;;;;13.57;5.80;;;;;;;;;;10566108;28;20092;-72
2022/03/20 19:50:03;;;;;;;16.50;6.15;;;;;;;;;;10562771;28;20483;-76
2022/03/20 19:55:06;;;;;;;16.57;6.20;;;;;;;;;;10536580;28;20419;-75
2022/03/20 20:00:11;;;;;;;15.83;6.90;;;;;;;;;;10543106;28;20116;-74
2022/03/20 20:05:15;;;;;;;16.25;5.93;;;;;;;;;;10560210;28;20055;-72
2022/03/20 20:10:18;;;;;;;15.15;5.75;;;;;;;;;;10563302;28;20070;-74
2022/03/20 20:15:23;;;;;;;16.23;5.85;;;;;;;;;;10556126;28;20698;-75
2022/03/20 20:20:27;;;;;;;17.52;6.82;;;;;;;;;;10556690;28;20069;-77
2022/03/20 20:25:30;;;;;;;14.90;5.38;;;;;;;;;;10544400;28;20038;-77
2022/03/20 20:30:35;;;;;;;13.52;6.07;;;;;;;;;;10558443;28;20048;-76
2022/03/20 20:35:38;;;;;;;15.15;5.57;;;;;;;;;;10556975;28;20369;-77
2022/03/20 20:40:41;;;;;;;13.80;5.80;;;;;;;;;;10564052;28;20065;-73
2022/03/20 20:45:50;;;;;;;14.30;6.30;;;;;;;;;;10558910;28;20028;-73
2022/03/20 20:50:53;;;;;;;17.77;6.13;;;;;;;;;;10568806;28;20044;-74
2022/03/20 20:55:58;;;;;;;12.90;5.50;;;;;;;;;;10550953;28;20036;-73
2022/03/20 21:01:04;;;;;;;20.90;8.65;;;;;;;;;;10554569;28;20339;-74
2022/03/20 21:06:07;;;;;;;13.10;5.20;;;;;;;;;;10556819;28;20415;-75
2022/03/20 21:11:10;;;;;;;12.65;4.65;;;;;;;;;;10555582;28;20036;-74
2022/03/20 21:16:16;;;;;;;13.70;5.82;;;;;;;;;;10564004;28;20118;-75
2022/03/20 21:21:20;;;;;;;13.43;5.90;;;;;;;;;;10541107;28;20044;-77
2022/03/20 21:26:23;;;;;;;15.00;6.47;;;;;;;;;;10555114;28;20048;-76
2022/03/20 21:31:28;;;;;;;14.15;6.13;;;;;;;;;;10551684;28;20425;-75
2022/03/20 21:36:31;;;;;;;13.95;6.18;;;;;;;;;;10537069;28;20518;-74
2022/03/20 21:41:33;;;;;;;11.95;5.10;;;;;;;;;;10559693;28;20054;-74
2022/03/20 21:46:38;;;;;;;10.32;4.95;;;;;;;;;;10554793;28;20028;-74
2022/03/20 21:51:41;;;;;;;13.07;5.35;;;;;;;;;;10557814;28;20040;-71
2022/03/20 21:56:44;;;;;;;12.50;5.40;;;;;;;;;;10571736;28;20036;-73
2022/03/20 22:01:48;;;;;;;12.75;5.18;;;;;;;;;;10592207;22;20031;-73
2022/03/20 22:06:52;;;;;;;15.20;6.05;;;;;;;;;;10567518;28;20023;-73
2022/03/20 22:11:55;;;;;;;14.77;5.57;;;;;;;;;;10560940;28;20048;-72
2022/03/20 22:17:00;;;;;;;13.60;5.83;;;;;;;;;;10561400;28;20035;-74
2022/03/20 22:22:04;;;;;;;12.73;4.65;;;;;;;;;;10573945;28;20163;-73
2022/03/20 22:27:07;;;;;;;12.83;5.67;;;;;;;;;;10547506;28;20058;-74
2022/03/20 22:32:11;;;;;;;11.60;5.50;;;;;;;;;;10553211;28;20085;-73
2022/03/20 22:42:36;;;;;;;14.10;5.80;;;;;;;;;;10485422;28;20068;-73
2022/03/20 22:47:40;;;;;;;12.87;4.60;;;;;;;;;;10495447;28;20436;-74
2022/03/20 22:52:45;;;;;;;13.35;5.80;;;;;;;;;;10499718;28;20048;-74
2022/03/20 22:57:48;;;;;;;;;;;;;;;;;;10515077;28;20373;-73
2022/03/20 23:02:52;;;;;;;14.90;5.78;;;;;;;;;;10496598;28;20312;-74
2022/03/20 23:07:56;;;;;;;12.37;5.57;;;;;;;;;;10512756;28;20033;-74
2022/03/20 23:12:59;;;;;;;13.60;5.90;;;;;;;;;;10496688;28;20492;-73
2022/03/20 23:18:05;;;;;;;10.93;4.97;;;;;;;;;;10508909;28;20024;-74
2022/03/20 23:23:08;;;;;;;15.93;5.30;;;;;;;;;;10515855;28;20036;-71
2022/03/20 23:28:11;;;;;;;11.13;5.50;;;;;;;;;;10500511;28;20085;-72
2022/03/20 23:33:15;;;;;;;14.20;5.30;;;;;;;;;;10513822;28;20491;-74
2022/03/20 23:38:18;;;;;;;13.37;5.30;;;;;;;;;;10495308;28;20036;-74
2022/03/20 23:43:21;;;;;;;13.87;5.07;;;;;;;;;;10499172;28;20044;-73
2022/03/20 23:48:26;;;;;;;10.88;5.10;;;;;;;;;;10519125;28;20102;-72
2022/03/20 23:53:29;;;;;;;12.02;5.30;;;;;;;;;;10500618;28;20071;-74
2022/03/20 23:58:32;;;;;;;14.33;5.37;;;;;;;;;;10499939;28;20047;-74
